EIN85L EICK-LEBB
Flight info
| Callsign | EIN85L |
|---|---|
| Flight time | 1h 35m |
| Altitude | 33000 |
| Route | ERTER1S ERTER DCT LEDGO N160 EVCOR DCT DOLUR DCT IDRIK DCT NENEM N867 MAPAX |
| Aircraft | A320/M-SDE3FGHIRWY/LB1 |
Departure
| Time | 2026-05-01 11:34 |
|---|---|
| Airport | Cork International Airport (EICK) |
Arrival
| Time | 2026-05-01 13:10 |
|---|---|
| Airport | Bilbao Airport (LEBB) |
| Time | Latitude | Longitude | Altitude | Speed | Heading |
|---|---|---|---|---|---|
| 2026-05-01 11:00 | 51.84844 | -8.49056 | 505 ft | 0 kts | 70° |
| 2026-05-01 11:27 | 51.84838 | -8.49084 | 504 ft | 4 kts | 70° |
| 2026-05-01 11:27 | 51.84829 | -8.49125 | 504 ft | 4 kts | 70° |
| 2026-05-01 11:27 | 51.84822 | -8.49157 | 504 ft | 4 kts | 68° |
| 2026-05-01 11:28 | 51.84807 | -8.49186 | 504 ft | 4 kts | 31° |
| 2026-05-01 11:28 | 51.84783 | -8.49203 | 504 ft | 4 kts | 7° |
| 2026-05-01 11:28 | 51.84757 | -8.49200 | 504 ft | 4 kts | 340° |
| 2026-05-01 11:29 | 51.84738 | -8.49188 | 504 ft | 0 kts | 340° |
| 2026-05-01 11:32 | 51.84743 | -8.49191 | 504 ft | 4 kts | 341° |
| 2026-05-01 11:32 | 51.84828 | -8.49222 | 504 ft | 17 kts | 346° |
| 2026-05-01 11:32 | 51.84937 | -8.49273 | 504 ft | 15 kts | 345° |
| 2026-05-01 11:32 | 51.85034 | -8.49327 | 504 ft | 14 kts | 341° |
| 2026-05-01 11:33 | 51.85120 | -8.49381 | 504 ft | 12 kts | 330° |
| 2026-05-01 11:33 | 51.85124 | -8.49488 | 504 ft | 10 kts | 223° |
| 2026-05-01 11:33 | 51.85055 | -8.49546 | 504 ft | 12 kts | 206° |
| 2026-05-01 11:33 | 51.84970 | -8.49603 | 504 ft | 14 kts | 185° |
| 2026-05-01 11:34 | 51.84865 | -8.49549 | 504 ft | 26 kts | 162° |
| 2026-05-01 11:34 | 51.84452 | -8.49302 | 505 ft | 98 kts | 160° |
| 2026-05-01 11:34 | 51.83645 | -8.48819 | 629 ft | 138 kts | 159° |
| 2026-05-01 11:34 | 51.82789 | -8.48346 | 1341 ft | 130 kts | 163° |
| 2026-05-01 11:35 | 51.81926 | -8.47918 | 1924 ft | 133 kts | 165° |
| 2026-05-01 11:35 | 51.80969 | -8.47449 | 2256 ft | 155 kts | 165° |
| 2026-05-01 11:35 | 51.79856 | -8.46898 | 2429 ft | 182 kts | 164° |
| 2026-05-01 11:35 | 51.78638 | -8.46118 | 2828 ft | 195 kts | 147° |
| 2026-05-01 11:36 | 51.77849 | -8.44175 | 3126 ft | 228 kts | 108° |
| 2026-05-01 11:36 | 51.77631 | -8.41508 | 3550 ft | 252 kts | 96° |
| 2026-05-01 11:36 | 51.77608 | -8.38587 | 4177 ft | 266 kts | 92° |
| 2026-05-01 11:36 | 51.77471 | -8.35602 | 5005 ft | 268 kts | 108° |
| 2026-05-01 11:37 | 51.76659 | -8.32941 | 5830 ft | 265 kts | 133° |
| 2026-05-01 11:37 | 51.75310 | -8.30947 | 6679 ft | 264 kts | 144° |
| 2026-05-01 11:37 | 51.73875 | -8.29066 | 7503 ft | 267 kts | 144° |
| 2026-05-01 11:37 | 51.72429 | -8.27174 | 8350 ft | 269 kts | 145° |
| 2026-05-01 11:38 | 51.71467 | -8.25914 | 8939 ft | 269 kts | 145° |
| 2026-05-01 11:38 | 51.69513 | -8.23363 | 10077 ft | 271 kts | 145° |
| 2026-05-01 11:38 | 51.68536 | -8.22086 | 10482 ft | 279 kts | 146° |
| 2026-05-01 11:38 | 51.66963 | -8.20047 | 10693 ft | 302 kts | 145° |
| 2026-05-01 11:39 | 51.65269 | -8.17858 | 11001 ft | 319 kts | 145° |
| 2026-05-01 11:39 | 51.63523 | -8.15587 | 11628 ft | 325 kts | 145° |
| 2026-05-01 11:39 | 51.61760 | -8.13285 | 12352 ft | 328 kts | 145° |
| 2026-05-01 11:39 | 51.59975 | -8.10954 | 13095 ft | 331 kts | 145° |
| 2026-05-01 11:40 | 51.58183 | -8.08614 | 13822 ft | 333 kts | 145° |
| 2026-05-01 11:40 | 51.56372 | -8.06255 | 14461 ft | 336 kts | 145° |
| 2026-05-01 11:40 | 51.54594 | -8.03773 | 15089 ft | 340 kts | 142° |
| 2026-05-01 11:40 | 51.52865 | -8.01158 | 15725 ft | 343 kts | 141° |
| 2026-05-01 11:41 | 51.51151 | -7.98462 | 16323 ft | 347 kts | 140° |
| 2026-05-01 11:41 | 51.49431 | -7.95727 | 16934 ft | 349 kts | 140° |
| 2026-05-01 11:41 | 51.47693 | -7.92980 | 17546 ft | 352 kts | 140° |
| 2026-05-01 11:41 | 51.45935 | -7.90234 | 18158 ft | 354 kts | 141° |
| 2026-05-01 11:42 | 51.44154 | -7.87481 | 18732 ft | 357 kts | 141° |
| 2026-05-01 11:42 | 51.42356 | -7.84724 | 19263 ft | 359 kts | 141° |
| 2026-05-01 11:42 | 51.40544 | -7.81958 | 19804 ft | 361 kts | 141° |
| 2026-05-01 11:42 | 51.38717 | -7.79175 | 20341 ft | 363 kts | 141° |
| 2026-05-01 11:43 | 51.36880 | -7.76376 | 20880 ft | 366 kts | 141° |
| 2026-05-01 11:43 | 51.35031 | -7.73557 | 21409 ft | 368 kts | 141° |
| 2026-05-01 11:43 | 51.33169 | -7.70725 | 21932 ft | 371 kts | 141° |
| 2026-05-01 11:44 | 51.29403 | -7.65007 | 22892 ft | 376 kts | 141° |
| 2026-05-01 11:44 | 51.27523 | -7.62154 | 23332 ft | 378 kts | 141° |
| 2026-05-01 11:44 | 51.25606 | -7.59249 | 23795 ft | 381 kts | 141° |
| 2026-05-01 11:44 | 51.23681 | -7.56334 | 24191 ft | 382 kts | 141° |
| 2026-05-01 11:45 | 51.21722 | -7.53370 | 24591 ft | 384 kts | 141° |
| 2026-05-01 11:45 | 51.19781 | -7.50439 | 24981 ft | 385 kts | 141° |
| 2026-05-01 11:45 | 51.17830 | -7.47499 | 25365 ft | 386 kts | 141° |
| 2026-05-01 11:45 | 51.15899 | -7.44593 | 25736 ft | 388 kts | 141° |
| 2026-05-01 11:46 | 51.13931 | -7.41637 | 26116 ft | 389 kts | 141° |
| 2026-05-01 11:46 | 51.11960 | -7.38678 | 26481 ft | 390 kts | 141° |
| 2026-05-01 11:46 | 51.09983 | -7.35710 | 26824 ft | 391 kts | 141° |
| 2026-05-01 11:46 | 51.07990 | -7.32719 | 27177 ft | 393 kts | 141° |
| 2026-05-01 11:47 | 51.05991 | -7.29721 | 27501 ft | 395 kts | 141° |
| 2026-05-01 11:47 | 51.03987 | -7.26720 | 27838 ft | 396 kts | 141° |
| 2026-05-01 11:47 | 51.01980 | -7.23719 | 28169 ft | 397 kts | 141° |
| 2026-05-01 11:47 | 50.99961 | -7.20709 | 28492 ft | 399 kts | 141° |
| 2026-05-01 11:48 | 50.97934 | -7.17698 | 28804 ft | 400 kts | 141° |
| 2026-05-01 11:48 | 50.95900 | -7.14681 | 29104 ft | 401 kts | 141° |
| 2026-05-01 11:48 | 50.93857 | -7.11656 | 29393 ft | 402 kts | 141° |
| 2026-05-01 11:48 | 50.91835 | -7.08664 | 29669 ft | 403 kts | 141° |
| 2026-05-01 11:49 | 50.89782 | -7.05634 | 29893 ft | 405 kts | 141° |
| 2026-05-01 11:49 | 50.87709 | -7.02583 | 30100 ft | 408 kts | 141° |
| 2026-05-01 11:49 | 50.85630 | -6.99524 | 30319 ft | 409 kts | 141° |
| 2026-05-01 11:49 | 50.83539 | -6.96446 | 30521 ft | 411 kts | 141° |
| 2026-05-01 11:50 | 50.81445 | -6.93365 | 30760 ft | 410 kts | 141° |
| 2026-05-01 11:50 | 50.79357 | -6.90294 | 31033 ft | 410 kts | 141° |
| 2026-05-01 11:50 | 50.77270 | -6.87231 | 31306 ft | 409 kts | 141° |
| 2026-05-01 11:50 | 50.75182 | -6.84176 | 31593 ft | 408 kts | 141° |
| 2026-05-01 11:51 | 50.73101 | -6.81134 | 31846 ft | 408 kts | 141° |
| 2026-05-01 11:51 | 50.71020 | -6.78099 | 32120 ft | 407 kts | 141° |
| 2026-05-01 11:51 | 50.68939 | -6.75075 | 32389 ft | 406 kts | 141° |
| 2026-05-01 11:51 | 50.66857 | -6.72054 | 32648 ft | 406 kts | 141° |
| 2026-05-01 11:52 | 50.64779 | -6.69032 | 32891 ft | 406 kts | 141° |
| 2026-05-01 11:52 | 50.62696 | -6.66006 | 33122 ft | 407 kts | 141° |
| 2026-05-01 11:52 | 50.58586 | -6.60041 | 33197 ft | 402 kts | 141° |
| 2026-05-01 11:53 | 50.54474 | -6.54097 | 33201 ft | 401 kts | 142° |
| 2026-05-01 11:53 | 50.50359 | -6.48173 | 33197 ft | 401 kts | 141° |
| 2026-05-01 11:54 | 50.46229 | -6.42231 | 33198 ft | 402 kts | 141° |
| 2026-05-01 11:54 | 50.42096 | -6.36298 | 33204 ft | 403 kts | 142° |
| 2026-05-01 11:55 | 50.37950 | -6.30368 | 33207 ft | 403 kts | 142° |
| 2026-05-01 11:55 | 50.33827 | -6.24478 | 33212 ft | 404 kts | 142° |
| 2026-05-01 11:56 | 50.29672 | -6.18560 | 33212 ft | 404 kts | 142° |
| 2026-05-01 11:56 | 50.25515 | -6.12657 | 33206 ft | 404 kts | 142° |
| 2026-05-01 11:57 | 50.21381 | -6.06797 | 33201 ft | 404 kts | 142° |
| 2026-05-01 11:57 | 50.17207 | -6.00889 | 33198 ft | 404 kts | 142° |
| 2026-05-01 11:58 | 50.13027 | -5.95007 | 33163 ft | 405 kts | 142° |
| 2026-05-01 11:59 | 50.06753 | -5.86183 | 33175 ft | 405 kts | 142° |
| 2026-05-01 11:59 | 50.02557 | -5.80308 | 33173 ft | 406 kts | 142° |
| 2026-05-01 12:00 | 49.96252 | -5.71504 | 33179 ft | 407 kts | 142° |
| 2026-05-01 12:01 | 49.89956 | -5.62730 | 33189 ft | 407 kts | 142° |
| 2026-05-01 12:01 | 49.85732 | -5.56865 | 33198 ft | 407 kts | 142° |
| 2026-05-01 12:02 | 49.81498 | -5.51003 | 33190 ft | 408 kts | 142° |
| 2026-05-01 12:02 | 49.77258 | -5.45158 | 33184 ft | 409 kts | 142° |
| 2026-05-01 12:03 | 49.73005 | -5.39305 | 33168 ft | 409 kts | 142° |
| 2026-05-01 12:03 | 49.68771 | -5.33477 | 33168 ft | 410 kts | 142° |
| 2026-05-01 12:04 | 49.64499 | -5.27613 | 33178 ft | 411 kts | 142° |
| 2026-05-01 12:04 | 49.60218 | -5.21750 | 33193 ft | 412 kts | 142° |
| 2026-05-01 12:05 | 49.55927 | -5.15894 | 33210 ft | 412 kts | 142° |
| 2026-05-01 12:05 | 49.49453 | -5.07158 | 33214 ft | 412 kts | 145° |
| 2026-05-01 12:06 | 49.44571 | -5.02698 | 33222 ft | 407 kts | 155° |
| 2026-05-01 12:06 | 49.39513 | -4.98748 | 33221 ft | 408 kts | 155° |
| 2026-05-01 12:07 | 49.34482 | -4.94818 | 33222 ft | 409 kts | 155° |
| 2026-05-01 12:07 | 49.29406 | -4.90868 | 33224 ft | 409 kts | 155° |
| 2026-05-01 12:08 | 49.24327 | -4.86932 | 33224 ft | 409 kts | 155° |
| 2026-05-01 12:08 | 49.19242 | -4.82996 | 33219 ft | 410 kts | 156° |
| 2026-05-01 12:09 | 49.14150 | -4.79062 | 33222 ft | 411 kts | 156° |
| 2026-05-01 12:09 | 49.09044 | -4.75121 | 33224 ft | 411 kts | 156° |
| 2026-05-01 12:10 | 49.01403 | -4.69258 | 33228 ft | 412 kts | 156° |
| 2026-05-01 12:11 | 48.93709 | -4.63373 | 33218 ft | 412 kts | 156° |
| 2026-05-01 12:11 | 48.88575 | -4.59458 | 33220 ft | 413 kts | 156° |
| 2026-05-01 12:12 | 48.83472 | -4.55568 | 33220 ft | 413 kts | 156° |
| 2026-05-01 12:12 | 48.78325 | -4.51656 | 33222 ft | 414 kts | 156° |
| 2026-05-01 12:13 | 48.73172 | -4.47759 | 33219 ft | 414 kts | 156° |
| 2026-05-01 12:13 | 48.68023 | -4.43864 | 33221 ft | 414 kts | 156° |
| 2026-05-01 12:14 | 48.62872 | -4.39970 | 33221 ft | 414 kts | 156° |
| 2026-05-01 12:14 | 48.57720 | -4.36086 | 33222 ft | 414 kts | 156° |
| 2026-05-01 12:15 | 48.52564 | -4.32203 | 33176 ft | 415 kts | 156° |
| 2026-05-01 12:15 | 48.47383 | -4.28317 | 33187 ft | 416 kts | 156° |
| 2026-05-01 12:16 | 48.44186 | -4.25929 | 33195 ft | 417 kts | 156° |
| 2026-05-01 12:16 | 48.43353 | -4.25307 | 33196 ft | 417 kts | 156° |
| 2026-05-01 12:17 | 48.38182 | -4.21456 | 33198 ft | 418 kts | 156° |
| 2026-05-01 12:17 | 48.32958 | -4.17569 | 33189 ft | 419 kts | 156° |
| 2026-05-01 12:18 | 48.27722 | -4.13682 | 33192 ft | 420 kts | 156° |
| 2026-05-01 12:18 | 48.23458 | -4.10527 | 33195 ft | 421 kts | 156° |
| 2026-05-01 12:19 | 48.20419 | -4.08278 | 33200 ft | 421 kts | 156° |
| 2026-05-01 12:19 | 48.15159 | -4.04379 | 33197 ft | 421 kts | 157° |
| 2026-05-01 12:20 | 48.09923 | -4.00520 | 33196 ft | 422 kts | 157° |
| 2026-05-01 12:20 | 48.04643 | -3.96636 | 33199 ft | 423 kts | 157° |
| 2026-05-01 12:21 | 47.99342 | -3.92742 | 33205 ft | 424 kts | 157° |
| 2026-05-01 12:21 | 47.94038 | -3.88867 | 33193 ft | 424 kts | 157° |
| 2026-05-01 12:22 | 47.89618 | -3.85635 | 33191 ft | 426 kts | 157° |
| 2026-05-01 12:22 | 47.83388 | -3.81098 | 33193 ft | 427 kts | 157° |
| 2026-05-01 12:23 | 47.78082 | -3.77249 | 33181 ft | 428 kts | 157° |
| 2026-05-01 12:23 | 47.72697 | -3.73339 | 33187 ft | 429 kts | 157° |
| 2026-05-01 12:24 | 47.67364 | -3.69480 | 33195 ft | 430 kts | 157° |
| 2026-05-01 12:24 | 47.61961 | -3.65633 | 33198 ft | 429 kts | 161° |
| 2026-05-01 12:25 | 47.53283 | -3.63152 | 33194 ft | 424 kts | 177° |
| 2026-05-01 12:26 | 47.47405 | -3.62292 | 33199 ft | 425 kts | 177° |
| 2026-05-01 12:26 | 47.39545 | -3.61133 | 33211 ft | 427 kts | 177° |
| 2026-05-01 12:27 | 47.30659 | -3.59832 | 33210 ft | 428 kts | 177° |
| 2026-05-01 12:28 | 47.20783 | -3.58406 | 33219 ft | 430 kts | 177° |
| 2026-05-01 12:29 | 47.12820 | -3.57244 | 33232 ft | 430 kts | 177° |
| 2026-05-01 12:29 | 47.03874 | -3.55934 | 33232 ft | 431 kts | 178° |
| 2026-05-01 12:30 | 46.94918 | -3.54644 | 33235 ft | 431 kts | 178° |
| 2026-05-01 12:31 | 46.88947 | -3.53785 | 33228 ft | 431 kts | 178° |
| 2026-05-01 12:31 | 46.82965 | -3.52927 | 33229 ft | 432 kts | 178° |
| 2026-05-01 12:32 | 46.76977 | -3.52069 | 33237 ft | 433 kts | 178° |
| 2026-05-01 12:32 | 46.68027 | -3.50795 | 33235 ft | 433 kts | 178° |
| 2026-05-01 12:33 | 46.62027 | -3.49944 | 33233 ft | 433 kts | 178° |
| 2026-05-01 12:33 | 46.56030 | -3.49099 | 33235 ft | 433 kts | 178° |
| 2026-05-01 12:34 | 46.50026 | -3.48249 | 33229 ft | 433 kts | 178° |
| 2026-05-01 12:34 | 46.44020 | -3.47401 | 33229 ft | 434 kts | 178° |
| 2026-05-01 12:35 | 46.38015 | -3.46556 | 33226 ft | 434 kts | 178° |
| 2026-05-01 12:35 | 46.32000 | -3.45691 | 33229 ft | 434 kts | 178° |
| 2026-05-01 12:36 | 46.25985 | -3.44839 | 33220 ft | 434 kts | 178° |
| 2026-05-01 12:36 | 46.20003 | -3.44015 | 33222 ft | 435 kts | 178° |
| 2026-05-01 12:37 | 46.13970 | -3.43182 | 33225 ft | 435 kts | 178° |
| 2026-05-01 12:37 | 46.07942 | -3.42332 | 33214 ft | 435 kts | 178° |
| 2026-05-01 12:38 | 46.01892 | -3.41486 | 33214 ft | 436 kts | 177° |
| 2026-05-01 12:38 | 45.95892 | -3.40651 | 33219 ft | 436 kts | 178° |
| 2026-05-01 12:39 | 45.89854 | -3.39811 | 33212 ft | 436 kts | 177° |
| 2026-05-01 12:39 | 45.83808 | -3.38971 | 33209 ft | 436 kts | 177° |
| 2026-05-01 12:40 | 45.77756 | -3.38139 | 33212 ft | 437 kts | 178° |
| 2026-05-01 12:40 | 45.71730 | -3.37314 | 33207 ft | 437 kts | 177° |
| 2026-05-01 12:41 | 45.65672 | -3.36475 | 33205 ft | 437 kts | 177° |
| 2026-05-01 12:41 | 45.59612 | -3.35629 | 33210 ft | 437 kts | 177° |
| 2026-05-01 12:42 | 45.53550 | -3.34799 | 33207 ft | 438 kts | 177° |
| 2026-05-01 12:42 | 45.47470 | -3.33982 | 33199 ft | 438 kts | 177° |
| 2026-05-01 12:43 | 45.41436 | -3.33164 | 33202 ft | 438 kts | 177° |
| 2026-05-01 12:43 | 45.35375 | -3.32343 | 33204 ft | 438 kts | 177° |
| 2026-05-01 12:44 | 45.29294 | -3.31515 | 33187 ft | 438 kts | 177° |
| 2026-05-01 12:45 | 45.17168 | -3.29866 | 33192 ft | 438 kts | 177° |
| 2026-05-01 12:45 | 45.11124 | -3.29055 | 33185 ft | 439 kts | 177° |
| 2026-05-01 12:46 | 45.05034 | -3.28237 | 33185 ft | 439 kts | 177° |
| 2026-05-01 12:46 | 44.98944 | -3.27416 | 33184 ft | 440 kts | 177° |
| 2026-05-01 12:47 | 44.92854 | -3.26597 | 33175 ft | 440 kts | 176° |
| 2026-05-01 12:47 | 44.86759 | -3.25780 | 33178 ft | 440 kts | 176° |
| 2026-05-01 12:48 | 44.80657 | -3.24973 | 33174 ft | 441 kts | 176° |
| 2026-05-01 12:48 | 44.74525 | -3.24155 | 32631 ft | 441 kts | 176° |
| 2026-05-01 12:49 | 44.71456 | -3.23743 | 30906 ft | 448 kts | 176° |
| 2026-05-01 12:49 | 44.68356 | -3.23330 | 29844 ft | 442 kts | 176° |
| 2026-05-01 12:49 | 44.65390 | -3.22932 | 29562 ft | 416 kts | 176° |
| 2026-05-01 12:49 | 44.62598 | -3.22553 | 29006 ft | 401 kts | 176° |
| 2026-05-01 12:50 | 44.59872 | -3.22186 | 28479 ft | 389 kts | 176° |
| 2026-05-01 12:50 | 44.57177 | -3.21828 | 27962 ft | 388 kts | 176° |
| 2026-05-01 12:50 | 44.54501 | -3.21482 | 27427 ft | 385 kts | 176° |
| 2026-05-01 12:50 | 44.51823 | -3.21135 | 26908 ft | 386 kts | 176° |
| 2026-05-01 12:51 | 44.49153 | -3.20785 | 26387 ft | 384 kts | 176° |
| 2026-05-01 12:51 | 44.46498 | -3.20438 | 25886 ft | 382 kts | 176° |
| 2026-05-01 12:51 | 44.41226 | -3.19745 | 24892 ft | 379 kts | 176° |
| 2026-05-01 12:52 | 44.38611 | -3.19400 | 24423 ft | 377 kts | 176° |
| 2026-05-01 12:52 | 44.33424 | -3.18715 | 23452 ft | 372 kts | 176° |
| 2026-05-01 12:52 | 44.30864 | -3.18378 | 23008 ft | 367 kts | 176° |
| 2026-05-01 12:53 | 44.25835 | -3.17716 | 22145 ft | 359 kts | 176° |
| 2026-05-01 12:53 | 44.23361 | -3.17394 | 21722 ft | 355 kts | 176° |
| 2026-05-01 12:53 | 44.20909 | -3.17074 | 21293 ft | 352 kts | 176° |
| 2026-05-01 12:54 | 44.18482 | -3.16756 | 20868 ft | 349 kts | 176° |
| 2026-05-01 12:54 | 44.13714 | -3.16136 | 20003 ft | 344 kts | 176° |
| 2026-05-01 12:54 | 44.11333 | -3.15829 | 19569 ft | 342 kts | 176° |
| 2026-05-01 12:55 | 44.06603 | -3.15214 | 18680 ft | 340 kts | 176° |
| 2026-05-01 12:55 | 44.04256 | -3.14775 | 18186 ft | 342 kts | 170° |
| 2026-05-01 12:55 | 44.01932 | -3.14090 | 17704 ft | 340 kts | 170° |
| 2026-05-01 12:56 | 43.99622 | -3.13416 | 17233 ft | 338 kts | 170° |
| 2026-05-01 12:56 | 43.97318 | -3.12750 | 16788 ft | 337 kts | 171° |
| 2026-05-01 12:56 | 43.95029 | -3.12090 | 16337 ft | 336 kts | 170° |
| 2026-05-01 12:56 | 43.92747 | -3.11430 | 15874 ft | 335 kts | 170° |
| 2026-05-01 12:57 | 43.90464 | -3.10771 | 15429 ft | 334 kts | 170° |
| 2026-05-01 12:57 | 43.85934 | -3.09462 | 14530 ft | 332 kts | 170° |
| 2026-05-01 12:57 | 43.83675 | -3.08809 | 14077 ft | 331 kts | 170° |
| 2026-05-01 12:58 | 43.81422 | -3.08160 | 13586 ft | 330 kts | 169° |
| 2026-05-01 12:58 | 43.79182 | -3.07514 | 13118 ft | 328 kts | 169° |
| 2026-05-01 12:58 | 43.76954 | -3.06870 | 12653 ft | 325 kts | 170° |
| 2026-05-01 12:59 | 43.72558 | -3.05606 | 11721 ft | 320 kts | 169° |
| 2026-05-01 12:59 | 43.70383 | -3.04980 | 11244 ft | 318 kts | 169° |
| 2026-05-01 12:59 | 43.66112 | -3.03726 | 10499 ft | 308 kts | 168° |
| 2026-05-01 13:00 | 43.62100 | -3.02452 | 10247 ft | 284 kts | 168° |
| 2026-05-01 13:00 | 43.60198 | -3.01847 | 10012 ft | 278 kts | 168° |
| 2026-05-01 13:01 | 43.56410 | -3.01304 | 9168 ft | 279 kts | 200° |
| 2026-05-01 13:01 | 43.54836 | -3.02794 | 8694 ft | 281 kts | 232° |
| 2026-05-01 13:01 | 43.53452 | -3.07767 | 7966 ft | 276 kts | 249° |
| 2026-05-01 13:02 | 43.52762 | -3.10209 | 7347 ft | 271 kts | 241° |
| 2026-05-01 13:07 | 43.35039 | -3.04556 | 2102 ft | 146 kts | 118° |
| 2026-05-01 13:07 | 43.34806 | -3.03916 | 1991 ft | 147 kts | 117° |
| 2026-05-01 13:07 | 43.34353 | -3.02674 | 1800 ft | 148 kts | 117° |
| 2026-05-01 13:08 | 43.33889 | -3.01404 | 1607 ft | 149 kts | 116° |
| 2026-05-01 13:08 | 43.33423 | -3.00125 | 1399 ft | 150 kts | 115° |
| 2026-05-01 13:08 | 43.32955 | -2.98845 | 1193 ft | 150 kts | 114° |
| 2026-05-01 13:08 | 43.32484 | -2.97557 | 984 ft | 150 kts | 112° |
| 2026-05-01 13:09 | 43.32013 | -2.96264 | 796 ft | 151 kts | 113° |
| 2026-05-01 13:09 | 43.31556 | -2.94980 | 562 ft | 147 kts | 114° |
| 2026-05-01 13:09 | 43.31096 | -2.93735 | 372 ft | 148 kts | 116° |
| 2026-05-01 13:09 | 43.30631 | -2.92474 | 172 ft | 147 kts | 114° |
| 2026-05-01 13:10 | 43.30207 | -2.91320 | 125 ft | 106 kts | 117° |
| 2026-05-01 13:10 | 43.30008 | -2.90781 | 126 ft | 30 kts | 117° |
| 2026-05-01 13:10 | 43.29934 | -2.90512 | 124 ft | 31 kts | 95° |
| 2026-05-01 13:10 | 43.29929 | -2.90279 | 128 ft | 10 kts | 83° |
| 2026-05-01 13:11 | 43.29969 | -2.90223 | 128 ft | 8 kts | 7° |
| 2026-05-01 13:11 | 43.30014 | -2.90289 | 124 ft | 15 kts | 296° |
| 2026-05-01 13:11 | 43.30076 | -2.90460 | 127 ft | 22 kts | 296° |
| 2026-05-01 13:11 | 43.30162 | -2.90570 | 125 ft | 17 kts | 15° |
| 2026-05-01 13:12 | 43.30270 | -2.90551 | 127 ft | 13 kts | 334° |
| 2026-05-01 13:12 | 43.30333 | -2.90606 | 126 ft | 10 kts | 332° |
| 2026-05-01 13:12 | 43.30382 | -2.90593 | 124 ft | 5 kts | 26° |
| 2026-05-01 13:12 | 43.30402 | -2.90580 | 125 ft | 2 kts | 26° |
| 2026-05-01 13:13 | 43.30408 | -2.90576 | 126 ft | 0 kts | 26° |